createdAt,value
2018-03-06T00:00:27.099Z,55.70
2018-03-06T00:01:27.013Z,54.60
2018-03-06T00:02:26.926Z,54.30
2018-03-06T00:03:26.839Z,56.30
2018-03-06T00:04:26.766Z,57.00
2018-03-06T00:05:26.676Z,55.20
2018-03-06T00:06:26.589Z,54.00
2018-03-06T00:07:26.501Z,54.10
2018-03-06T00:08:26.434Z,54.30
2018-03-06T00:09:26.339Z,55.40
2018-03-06T00:10:26.251Z,54.20
2018-03-06T00:11:26.165Z,51.90
2018-03-06T00:12:26.088Z,53.60
2018-03-06T00:13:26.002Z,56.30
2018-03-06T00:14:25.954Z,53.80
2018-03-06T00:15:25.826Z,57.00
2018-03-06T00:16:25.751Z,54.80
2018-03-06T00:17:25.665Z,54.80
2018-03-06T00:18:25.590Z,54.20
2018-03-06T00:19:25.529Z,55.50
2018-03-06T00:20:25.405Z,54.90
2018-03-06T00:21:25.328Z,54.20
2018-03-06T00:22:25.245Z,54.40
2018-03-06T00:23:25.157Z,55.50
2018-03-06T00:24:25.068Z,55.40
2018-03-06T00:25:24.990Z,54.60
2018-03-06T00:26:24.957Z,54.40
2018-03-06T00:27:24.816Z,56.00
2018-03-06T00:28:24.728Z,53.10
2018-03-06T00:29:24.654Z,57.10
2018-03-06T00:30:24.566Z,53.50
2018-03-06T00:31:24.484Z,57.60
2018-03-06T00:32:24.438Z,53.90
2018-03-06T00:33:24.305Z,53.10
2018-03-06T00:34:24.228Z,57.90
2018-03-06T00:35:24.142Z,54.90
2018-03-06T00:36:24.054Z,56.80
2018-03-06T00:37:23.967Z,59.50
2018-03-06T00:38:23.907Z,56.80
2018-03-06T00:39:23.804Z,53.60
2018-03-06T00:40:23.717Z,55.90
2018-03-06T00:41:23.637Z,55.80
2018-03-06T00:42:23.544Z,56.30
2018-03-06T00:43:23.468Z,53.30
2018-03-06T00:44:23.422Z,55.80
2018-03-06T00:45:23.293Z,59.20
2018-03-06T00:46:23.206Z,55.60
2018-03-06T00:47:23.132Z,54.10
2018-03-06T00:48:23.044Z,59.60
2018-03-06T00:49:22.955Z,53.60
2018-03-06T00:50:22.875Z,57.50
2018-03-06T00:51:22.785Z,56.40
2018-03-06T00:52:22.704Z,57.00
2018-03-06T00:53:22.619Z,54.70
2018-03-06T00:54:22.530Z,55.70
2018-03-06T00:55:22.444Z,53.40
2018-03-06T00:56:22.371Z,57.40
2018-03-06T00:57:22.281Z,54.20
2018-03-06T00:58:22.200Z,57.00
2018-03-06T00:59:22.105Z,57.90
2018-03-06T01:00:22.020Z,52.50
2018-03-06T01:01:21.945Z,56.70
2018-03-06T01:02:21.895Z,58.60
2018-03-06T01:03:21.771Z,57.90
2018-03-06T01:04:21.683Z,56.90
2018-03-06T01:05:21.607Z,55.70
2018-03-06T01:06:21.521Z,56.20
2018-03-06T01:07:21.431Z,57.90
2018-03-06T01:08:21.360Z,53.30
2018-03-06T01:09:21.271Z,58.00
2018-03-06T01:10:21.183Z,56.90
2018-03-06T01:11:21.098Z,57.30
2018-03-06T01:12:21.008Z,55.80
2018-03-06T01:13:20.920Z,53.80
2018-03-06T01:14:20.847Z,55.50
2018-03-06T01:15:20.771Z,55.20
2018-03-06T01:16:20.672Z,54.70
2018-03-06T01:17:20.586Z,55.30
2018-03-06T01:18:20.499Z,53.90
2018-03-06T01:19:20.422Z,60.30
2018-03-06T01:20:20.391Z,58.10
2018-03-06T01:21:20.247Z,55.40
2018-03-06T01:22:20.173Z,55.90
2018-03-06T01:23:20.073Z,58.00
2018-03-06T01:24:20.006Z,55.90
2018-03-06T01:25:19.909Z,57.90
2018-03-06T01:26:19.822Z,55.20
2018-03-06T01:27:19.735Z,56.40
2018-03-06T01:28:19.648Z,53.50
2018-03-06T01:29:19.574Z,56.80
2018-03-06T01:30:19.485Z,59.80
2018-03-06T01:31:19.401Z,58.80
2018-03-06T01:32:19.311Z,55.00
2018-03-06T01:33:19.235Z,57.30
2018-03-06T01:34:19.148Z,53.10
2018-03-06T01:35:19.073Z,57.60
2018-03-06T01:36:18.973Z,51.10
2018-03-06T01:37:18.886Z,58.50
2018-03-06T01:38:18.812Z,60.50
2018-03-06T01:39:18.724Z,59.00
2018-03-06T01:40:18.636Z,57.30
2018-03-06T01:41:18.548Z,61.60
2018-03-06T01:42:18.461Z,59.20
2018-03-06T01:43:18.386Z,57.00
2018-03-06T01:44:18.299Z,57.50
2018-03-06T01:45:18.211Z,55.70
2018-03-06T01:46:18.125Z,58.10
2018-03-06T01:47:18.038Z,56.80
2018-03-06T01:48:17.965Z,55.20
2018-03-06T01:49:17.878Z,59.10
2018-03-06T01:50:17.790Z,58.90
2018-03-06T01:51:17.700Z,54.00
2018-03-06T01:52:17.613Z,56.40
2018-03-06T01:53:17.538Z,61.10
2018-03-06T01:54:17.451Z,57.40
2018-03-06T01:55:17.363Z,59.40
2018-03-06T01:56:17.276Z,59.10
2018-03-06T01:57:17.188Z,57.00
2018-03-06T01:58:17.116Z,57.20
2018-03-06T01:59:17.026Z,57.60
2018-03-06T02:00:16.938Z,58.40
2018-03-06T02:01:16.851Z,62.70
2018-03-06T02:02:16.763Z,57.60
2018-03-06T02:03:16.688Z,61.80
2018-03-06T02:04:16.601Z,57.40
2018-03-06T02:05:16.513Z,58.90
2018-03-06T02:06:16.427Z,59.00
2018-03-06T02:07:16.340Z,61.00
2018-03-06T02:08:16.253Z,59.50
2018-03-06T02:09:16.177Z,60.30
2018-03-06T02:10:16.090Z,63.40
2018-03-06T02:11:16.002Z,59.10
2018-03-06T02:12:15.928Z,60.30
2018-03-06T02:13:15.827Z,60.60
2018-03-06T02:14:15.752Z,60.60
2018-03-06T02:15:15.666Z,60.10
2018-03-06T02:16:15.578Z,57.60
2018-03-06T02:17:15.494Z,60.10
2018-03-06T02:18:15.404Z,62.30
2018-03-06T02:19:15.317Z,63.10
2018-03-06T02:20:15.241Z,62.00
2018-03-06T02:21:15.152Z,62.30
2018-03-06T02:22:15.066Z,60.30
2018-03-06T02:23:14.990Z,64.00
2018-03-06T02:24:14.893Z,60.90
2018-03-06T02:25:14.818Z,63.40
2018-03-06T02:26:14.729Z,64.60
2018-03-06T02:27:14.641Z,66.00
2018-03-06T02:28:14.555Z,61.90
2018-03-06T02:29:14.468Z,61.80
2018-03-06T02:30:14.393Z,66.20
2018-03-06T02:31:14.306Z,60.70
2018-03-06T02:32:14.233Z,61.20
2018-03-06T02:33:14.130Z,64.10
2018-03-06T02:34:14.043Z,60.40
2018-03-06T02:35:13.967Z,64.30
2018-03-06T02:36:13.880Z,66.00
2018-03-06T02:37:13.793Z,67.10
2018-03-06T02:38:13.704Z,61.70
2018-03-06T02:39:13.630Z,61.70
2018-03-06T02:40:13.531Z,64.80
2018-03-06T02:41:13.457Z,63.90
2018-03-06T02:42:13.368Z,61.10
2018-03-06T02:43:13.280Z,62.10
2018-03-06T02:44:13.192Z,67.70
2018-03-06T02:45:13.107Z,66.60
2018-03-06T02:46:13.031Z,63.40
2018-03-06T02:47:12.950Z,63.00
2018-03-06T02:48:12.856Z,63.40
2018-03-06T02:49:12.770Z,64.40
2018-03-06T02:50:12.681Z,62.20
2018-03-06T02:51:12.595Z,63.10
2018-03-06T02:52:12.532Z,64.80
2018-03-06T02:53:12.433Z,62.20
2018-03-06T02:54:12.344Z,68.10
2018-03-06T02:55:12.257Z,62.20
2018-03-06T02:56:12.170Z,65.90
2018-03-06T02:57:12.095Z,64.20
2018-03-06T02:58:12.007Z,65.60
2018-03-06T02:59:11.932Z,67.30
2018-03-06T03:00:11.834Z,63.20
2018-03-06T03:01:11.748Z,65.00
2018-03-06T03:02:11.670Z,66.40
2018-03-06T03:03:11.583Z,66.20
2018-03-06T03:04:11.497Z,64.00
2018-03-06T03:05:11.473Z,63.80
2018-03-06T03:06:11.321Z,67.10
2018-03-06T03:07:11.235Z,63.60
2018-03-06T03:08:11.159Z,68.40
2018-03-06T03:09:11.071Z,67.10
2018-03-06T03:10:10.984Z,68.30
2018-03-06T03:11:10.897Z,65.40
2018-03-06T03:12:10.810Z,68.50
2018-03-06T03:13:10.722Z,68.30
2018-03-06T03:14:10.646Z,67.30
2018-03-06T03:15:10.563Z,68.00
2018-03-06T03:16:10.472Z,63.50
2018-03-06T03:17:10.385Z,72.30
2018-03-06T03:18:10.299Z,67.70
2018-03-06T03:19:10.222Z,70.30
2018-03-06T03:20:10.137Z,67.10
2018-03-06T03:21:10.049Z,68.50
2018-03-06T03:22:09.960Z,69.00
2018-03-06T03:23:09.871Z,66.10
2018-03-06T03:24:09.786Z,67.40
2018-03-06T03:25:09.711Z,72.60
2018-03-06T03:26:09.623Z,66.90
2018-03-06T03:27:09.536Z,69.70
2018-03-06T03:28:09.448Z,69.50
2018-03-06T03:29:09.361Z,69.00
2018-03-06T03:30:09.275Z,72.10
2018-03-06T03:31:09.202Z,70.30
2018-03-06T03:32:09.112Z,69.00
2018-03-06T03:33:09.023Z,70.80
2018-03-06T03:34:08.941Z,70.10
2018-03-06T03:35:08.848Z,72.20
2018-03-06T03:36:08.762Z,67.90
2018-03-06T03:37:08.687Z,68.30
2018-03-06T03:38:08.639Z,69.60
2018-03-06T03:39:08.512Z,68.40
2018-03-06T03:40:08.425Z,66.20
2018-03-06T03:41:08.343Z,68.80
2018-03-06T03:42:08.263Z,67.30
2018-03-06T03:43:08.176Z,71.00
2018-03-06T03:44:08.087Z,69.50
2018-03-06T03:45:08.012Z,68.10
2018-03-06T03:46:07.915Z,69.10
2018-03-06T03:47:07.825Z,73.20
2018-03-06T03:48:07.750Z,72.30
2018-03-06T03:49:07.663Z,73.40
2018-03-06T03:50:07.577Z,71.60
2018-03-06T03:51:07.489Z,71.00
2018-03-06T03:52:07.414Z,68.60
2018-03-06T03:53:07.314Z,70.00
2018-03-06T03:54:07.243Z,68.40
2018-03-06T03:55:07.152Z,67.80
2018-03-06T03:56:07.063Z,68.50
2018-03-06T03:57:06.975Z,68.40
2018-03-06T03:58:06.889Z,69.50
2018-03-06T03:59:06.814Z,69.20
2018-03-06T04:00:06.727Z,68.40
2018-03-06T04:01:06.645Z,73.50
2018-03-06T04:02:06.552Z,68.00
2018-03-06T04:03:06.465Z,68.10
2018-03-06T04:04:06.376Z,67.70
2018-03-06T04:05:06.291Z,67.80
2018-03-06T04:06:06.216Z,74.90
2018-03-06T04:07:06.134Z,73.10
2018-03-06T04:08:06.041Z,72.60
2018-03-06T04:09:05.952Z,69.90
2018-03-06T04:10:05.867Z,67.00
2018-03-06T04:11:05.778Z,71.40
2018-03-06T04:12:05.704Z,70.50
2018-03-06T04:13:05.619Z,68.20
2018-03-06T04:14:05.528Z,67.60
2018-03-06T04:15:05.441Z,69.80
2018-03-06T04:16:05.356Z,74.40
2018-03-06T04:17:05.267Z,71.00
2018-03-06T04:18:05.196Z,70.30
2018-03-06T04:19:05.116Z,73.90
2018-03-06T04:20:05.017Z,71.00
2018-03-06T04:21:04.934Z,67.50
2018-03-06T04:22:04.842Z,70.80
2018-03-06T04:23:04.755Z,75.10
2018-03-06T04:24:04.691Z,72.10
2018-03-06T04:25:04.592Z,70.70
2018-03-06T04:26:04.506Z,74.90
2018-03-06T04:27:04.418Z,71.00
2018-03-06T04:28:04.344Z,75.40
2018-03-06T04:29:04.244Z,71.30
2018-03-06T04:30:04.156Z,69.40
2018-03-06T04:31:04.081Z,69.60
2018-03-06T04:32:03.993Z,72.00
2018-03-06T04:33:03.907Z,74.50
2018-03-06T04:34:03.819Z,66.20
2018-03-06T04:35:03.731Z,73.10
2018-03-06T04:36:03.644Z,71.90
2018-03-06T04:37:03.569Z,71.00
2018-03-06T04:38:03.480Z,67.40
2018-03-06T04:39:03.394Z,71.60
2018-03-06T04:40:03.306Z,66.60
2018-03-06T04:41:03.219Z,74.60
2018-03-06T04:42:03.132Z,73.30
2018-03-06T04:43:03.057Z,71.60
2018-03-06T04:44:02.971Z,71.50
2018-03-06T04:45:02.882Z,73.70
2018-03-06T04:46:02.798Z,68.80
2018-03-06T04:47:02.707Z,74.30
2018-03-06T04:48:02.620Z,69.50
2018-03-06T04:49:02.545Z,72.70
2018-03-06T04:50:02.457Z,70.70
2018-03-06T04:51:02.384Z,72.20
2018-03-06T04:52:02.282Z,76.00
2018-03-06T04:53:02.196Z,70.80
2018-03-06T04:54:02.109Z,70.40
2018-03-06T04:55:02.023Z,73.70
2018-03-06T04:56:01.946Z,71.50
2018-03-06T04:57:01.858Z,72.20
2018-03-06T04:58:01.771Z,74.10
2018-03-06T04:59:01.684Z,75.80
2018-03-06T05:00:01.597Z,75.40
2018-03-06T05:01:01.510Z,72.90
2018-03-06T05:02:01.446Z,71.70
2018-03-06T05:03:01.347Z,70.50
2018-03-06T05:04:01.259Z,73.20
2018-03-06T05:05:01.172Z,67.90
2018-03-06T05:06:01.084Z,74.00
2018-03-06T05:07:01.009Z,74.00
2018-03-06T05:08:00.910Z,72.00
2018-03-06T05:09:00.834Z,75.30
2018-03-06T05:10:00.747Z,71.80
2018-03-06T05:11:00.711Z,67.50
2018-03-06T05:12:00.572Z,75.20
2018-03-06T05:13:00.498Z,73.50
2018-03-06T05:14:00.399Z,73.10
2018-03-06T05:15:00.322Z,74.00
2018-03-06T05:16:00.236Z,71.20
2018-03-06T05:17:00.148Z,78.90
2018-03-06T05:18:00.060Z,71.90
2018-03-06T05:18:59.975Z,69.30
2018-03-06T05:19:59.886Z,73.20
2018-03-06T05:20:59.810Z,77.80
2018-03-06T05:21:59.725Z,70.90
2018-03-06T05:22:59.636Z,75.80
2018-03-06T05:23:59.549Z,72.70
2018-03-06T05:24:59.460Z,74.00
2018-03-06T05:25:59.374Z,74.00
2018-03-06T05:26:59.286Z,78.70
2018-03-06T05:27:59.211Z,72.20
2018-03-06T05:28:59.125Z,70.00
2018-03-06T05:29:59.037Z,76.60
2018-03-06T05:30:58.951Z,76.50
2018-03-06T05:31:58.862Z,74.70
2018-03-06T05:32:58.776Z,72.50
2018-03-06T05:33:58.700Z,70.40
2018-03-06T05:34:58.612Z,73.10
2018-03-06T05:35:58.528Z,73.70
2018-03-06T05:36:58.437Z,76.70
2018-03-06T05:37:58.351Z,75.50
2018-03-06T05:38:58.266Z,75.60
2018-03-06T05:39:58.190Z,75.80
2018-03-06T05:40:58.101Z,75.90
2018-03-06T05:41:58.013Z,72.30
2018-03-06T05:42:57.927Z,77.50
2018-03-06T05:43:57.839Z,78.40
2018-03-06T05:44:57.752Z,75.00
2018-03-06T05:45:57.667Z,72.50
2018-03-06T05:46:57.589Z,72.40
2018-03-06T05:47:57.502Z,75.70
2018-03-06T05:48:57.425Z,72.90
2018-03-06T05:49:57.332Z,76.10
2018-03-06T05:50:57.239Z,73.00
2018-03-06T05:51:57.151Z,74.40
2018-03-06T05:52:57.076Z,77.40
2018-03-06T05:53:56.991Z,76.30
2018-03-06T05:54:56.902Z,74.70
2018-03-06T05:55:56.815Z,77.80
2018-03-06T05:56:56.729Z,73.30
2018-03-06T05:57:56.640Z,70.70
2018-03-06T05:58:56.566Z,77.10
2018-03-06T05:59:56.478Z,70.50
2018-03-06T06:00:56.438Z,70.70
2018-03-06T06:01:56.304Z,75.30
2018-03-06T06:02:56.219Z,76.90
2018-03-06T06:03:56.130Z,79.20
2018-03-06T06:04:56.043Z,72.60
2018-03-06T06:05:55.965Z,72.00
2018-03-06T06:06:55.879Z,74.60
2018-03-06T06:07:55.804Z,68.80
2018-03-06T06:08:55.702Z,75.20
2018-03-06T06:09:55.617Z,76.80
2018-03-06T06:10:55.534Z,75.40
2018-03-06T06:11:55.442Z,70.80
2018-03-06T06:12:55.366Z,74.60
2018-03-06T06:13:55.279Z,76.30
2018-03-06T06:14:55.211Z,74.40
2018-03-06T06:15:55.105Z,71.50
2018-03-06T06:16:55.018Z,75.10
2018-03-06T06:17:54.981Z,69.50
2018-03-06T06:18:54.855Z,70.30
2018-03-06T06:19:54.768Z,72.40
2018-03-06T06:20:54.680Z,77.00
2018-03-06T06:21:54.606Z,74.30
2018-03-06T06:22:54.506Z,69.40
2018-03-06T06:23:54.417Z,70.60
2018-03-06T06:24:54.342Z,72.40
2018-03-06T06:25:54.255Z,73.00
2018-03-06T06:26:54.169Z,72.40
2018-03-06T06:27:54.081Z,70.40
2018-03-06T06:28:54.006Z,70.60
2018-03-06T06:29:53.906Z,77.00
2018-03-06T06:30:53.819Z,77.20
2018-03-06T06:31:53.744Z,74.70
2018-03-06T06:32:53.660Z,73.20
2018-03-06T06:33:53.570Z,71.70
2018-03-06T06:34:53.481Z,76.10
2018-03-06T06:35:53.396Z,72.00
2018-03-06T06:36:53.319Z,71.10
2018-03-06T06:37:53.232Z,73.20
2018-03-06T06:38:53.143Z,70.50
2018-03-06T06:39:53.057Z,69.10
2018-03-06T06:40:52.970Z,71.70
2018-03-06T06:41:52.894Z,72.30
2018-03-06T06:42:52.809Z,72.50
2018-03-06T06:43:52.732Z,69.00
2018-03-06T06:44:52.633Z,69.70
2018-03-06T06:45:52.544Z,68.80
2018-03-06T06:46:52.486Z,72.10
2018-03-06T06:47:52.383Z,70.20
2018-03-06T06:48:52.296Z,66.30
2018-03-06T06:49:52.209Z,68.00
2018-03-06T06:50:52.121Z,68.90
2018-03-06T06:51:52.034Z,67.90
2018-03-06T06:52:51.959Z,67.70
2018-03-06T06:53:51.872Z,66.70
2018-03-06T06:54:51.785Z,70.80
2018-03-06T06:55:51.701Z,70.60
2018-03-06T06:56:51.609Z,73.40
2018-03-06T06:57:51.535Z,67.70
2018-03-06T06:58:51.446Z,68.10
2018-03-06T06:59:51.360Z,68.40
2018-03-06T07:00:51.271Z,72.60
2018-03-06T07:01:51.185Z,70.90
2018-03-06T07:02:51.110Z,69.20
2018-03-06T07:03:51.034Z,67.60
2018-03-06T07:04:50.935Z,68.70
2018-03-06T07:05:50.848Z,67.70
2018-03-06T07:06:50.761Z,68.40
2018-03-06T07:07:50.686Z,67.30
2018-03-06T07:08:50.601Z,68.20
2018-03-06T07:09:50.510Z,64.20
2018-03-06T07:10:50.423Z,67.10
2018-03-06T07:11:50.352Z,66.50
2018-03-06T07:12:50.262Z,67.60
2018-03-06T07:13:50.173Z,67.40
2018-03-06T07:14:50.087Z,67.20
2018-03-06T07:15:49.999Z,65.30
2018-03-06T07:16:49.924Z,67.60
2018-03-06T07:17:49.838Z,64.00
2018-03-06T07:18:49.753Z,63.80
2018-03-06T07:19:49.663Z,65.00
2018-03-06T07:20:49.586Z,64.40
2018-03-06T07:21:49.498Z,66.40
2018-03-06T07:22:49.414Z,64.50
2018-03-06T07:23:49.325Z,63.50
2018-03-06T07:24:49.249Z,65.30
2018-03-06T07:25:49.168Z,61.80
2018-03-06T07:26:49.074Z,62.40
2018-03-06T07:27:49.012Z,66.70
2018-03-06T07:28:48.913Z,64.00
2018-03-06T07:29:48.824Z,67.70
2018-03-06T07:30:48.738Z,62.90
2018-03-06T07:31:48.668Z,64.40
2018-03-06T07:32:48.575Z,62.70
2018-03-06T07:33:48.488Z,67.90
2018-03-06T07:34:48.414Z,66.10
2018-03-06T07:35:48.326Z,65.90
2018-03-06T07:36:48.238Z,64.60
2018-03-06T07:37:48.151Z,67.20
2018-03-06T07:38:48.075Z,63.20
2018-03-06T07:39:47.990Z,60.40
2018-03-06T07:40:47.901Z,64.10
2018-03-06T07:41:47.848Z,60.90
2018-03-06T07:42:47.740Z,63.80
2018-03-06T07:43:47.651Z,63.10
2018-03-06T07:44:47.576Z,62.20
2018-03-06T07:45:47.491Z,63.00
2018-03-06T07:46:47.401Z,61.30
2018-03-06T07:47:47.328Z,64.80
2018-03-06T07:48:47.240Z,63.20
2018-03-06T07:49:47.164Z,61.20
2018-03-06T07:50:47.078Z,64.30
2018-03-06T07:51:46.993Z,63.90
2018-03-06T07:52:46.916Z,62.80
2018-03-06T07:53:46.829Z,66.60
2018-03-06T07:54:46.741Z,64.10
2018-03-06T07:55:46.667Z,62.50
2018-03-06T07:56:46.596Z,63.90
2018-03-06T07:57:46.491Z,66.10
2018-03-06T07:58:46.417Z,63.40
2018-03-06T07:59:46.327Z,65.30
2018-03-06T08:00:46.254Z,64.30
2018-03-06T08:01:46.167Z,66.20
2018-03-06T08:02:46.080Z,63.60
2018-03-06T08:03:46.009Z,63.90
2018-03-06T08:04:45.917Z,63.90
2018-03-06T08:05:45.830Z,62.90
2018-03-06T08:06:45.768Z,66.90
2018-03-06T08:07:45.668Z,63.70
2018-03-06T08:08:45.594Z,62.90
2018-03-06T08:09:45.505Z,62.40
2018-03-06T08:10:45.419Z,63.90
2018-03-06T08:11:45.343Z,60.40
2018-03-06T08:12:45.254Z,64.20
2018-03-06T08:13:45.181Z,64.80
2018-03-06T08:14:45.093Z,60.00
2018-03-06T08:15:45.011Z,64.00
2018-03-06T08:16:44.930Z,62.50
2018-03-06T08:17:44.852Z,61.40
2018-03-06T08:18:44.755Z,60.40
2018-03-06T08:19:44.680Z,62.40
2018-03-06T08:20:44.594Z,60.50
2018-03-06T08:21:44.520Z,60.60
2018-03-06T08:22:44.432Z,63.50
2018-03-06T08:23:44.345Z,64.30
2018-03-06T08:24:44.268Z,64.70
2018-03-06T08:25:44.183Z,60.00
2018-03-06T08:26:44.107Z,62.10
2018-03-06T08:27:44.020Z,60.00
2018-03-06T08:28:43.933Z,61.20
2018-03-06T08:29:43.858Z,60.90
2018-03-06T08:30:43.770Z,59.70
2018-03-06T08:31:43.700Z,61.00
2018-03-06T08:32:43.620Z,59.20
2018-03-06T08:33:43.533Z,59.40
2018-03-06T08:34:43.447Z,56.60
2018-03-06T08:35:43.360Z,59.00
2018-03-06T08:36:43.283Z,57.20
2018-03-06T08:37:43.263Z,50.90
2018-03-06T08:38:43.121Z,50.10
2018-03-06T08:39:43.034Z,51.60
2018-03-06T08:40:42.960Z,54.10
2018-03-06T08:41:42.871Z,53.00
2018-03-06T08:42:42.798Z,52.00
2018-03-06T08:43:42.734Z,50.50
2018-03-06T08:44:42.634Z,55.20
2018-03-06T08:45:42.551Z,51.30
2018-03-06T08:46:42.472Z,54.20
2018-03-06T08:47:42.385Z,55.40
2018-03-06T08:48:42.327Z,54.80
2018-03-06T08:49:42.222Z,51.30
2018-03-06T08:50:42.153Z,52.50
2018-03-06T08:51:42.061Z,52.30
2018-03-06T08:52:41.989Z,52.00
2018-03-06T08:53:41.899Z,51.20
2018-03-06T08:54:41.823Z,49.60
2018-03-06T08:55:41.735Z,48.60
2018-03-06T08:56:41.662Z,48.70
2018-03-06T08:57:41.624Z,50.80
2018-03-06T08:58:41.498Z,48.90
2018-03-06T08:59:41.411Z,52.30
2018-03-06T09:00:41.336Z,50.50
2018-03-06T09:01:41.248Z,50.40
2018-03-06T09:02:41.174Z,49.70
2018-03-06T09:03:41.119Z,51.10
2018-03-06T09:04:41.011Z,51.90
2018-03-06T09:05:40.925Z,50.10
2018-03-06T09:06:40.850Z,51.50
2018-03-06T09:07:40.763Z,53.70
2018-03-06T09:08:40.690Z,50.10
2018-03-06T09:09:40.612Z,48.90
2018-03-06T09:10:40.525Z,48.70
2018-03-06T09:11:40.451Z,50.40
2018-03-06T09:12:40.362Z,47.60
2018-03-06T09:13:40.288Z,52.20
2018-03-06T09:14:40.200Z,48.60
2018-03-06T09:15:40.124Z,50.10
2018-03-06T09:16:40.038Z,51.10
2018-03-06T09:17:39.963Z,48.60
2018-03-06T09:18:39.876Z,47.40
2018-03-06T09:19:39.801Z,50.20
2018-03-06T09:20:39.724Z,50.20
2018-03-06T09:21:39.638Z,49.70
2018-03-06T09:22:39.564Z,50.40
2018-03-06T09:23:39.476Z,50.70
2018-03-06T09:24:39.401Z,48.30
2018-03-06T09:25:39.313Z,48.40
2018-03-06T09:26:39.238Z,51.80
2018-03-06T09:27:39.151Z,50.70
2018-03-06T09:28:39.076Z,49.70
2018-03-06T09:29:39.001Z,49.20
2018-03-06T09:30:38.913Z,46.10
2018-03-06T09:31:38.842Z,49.80
2018-03-06T09:32:38.752Z,48.90
2018-03-06T09:33:38.677Z,48.60
2018-03-06T09:34:38.594Z,49.40
2018-03-06T09:35:38.515Z,50.30
2018-03-06T09:36:38.429Z,47.40
2018-03-06T09:37:38.352Z,48.10
2018-03-06T09:38:38.277Z,51.50
2018-03-06T09:39:38.189Z,48.80
2018-03-06T09:40:38.115Z,47.60
2018-03-06T09:41:38.040Z,49.20
2018-03-06T09:42:37.953Z,46.20
2018-03-06T09:43:37.879Z,48.70
2018-03-06T09:44:37.791Z,50.50
2018-03-06T09:45:37.703Z,46.90
2018-03-06T09:46:37.628Z,46.10
2018-03-06T09:47:37.542Z,45.50
2018-03-06T09:48:37.478Z,49.20
2018-03-06T09:49:37.391Z,48.00
2018-03-06T09:50:37.304Z,44.80
2018-03-06T09:51:37.229Z,45.20
2018-03-06T09:52:37.142Z,47.00
2018-03-06T09:53:37.079Z,45.30
2018-03-06T09:54:36.979Z,48.00
2018-03-06T09:55:36.905Z,48.00
2018-03-06T09:56:36.817Z,47.40
2018-03-06T09:57:36.789Z,49.60
2018-03-06T09:58:36.656Z,51.70
2018-03-06T09:59:36.580Z,48.20
2018-03-06T10:00:36.504Z,47.60
2018-03-06T10:01:36.417Z,46.20
2018-03-06T10:02:36.342Z,48.40
2018-03-06T10:03:36.255Z,51.50
2018-03-06T10:04:36.180Z,48.70
2018-03-06T10:05:36.093Z,49.50
2018-03-06T10:06:36.018Z,49.10
2018-03-06T10:07:35.932Z,51.70
2018-03-06T10:08:35.857Z,47.50
2018-03-06T10:09:35.780Z,46.50
2018-03-06T10:10:35.695Z,48.50
2018-03-06T10:11:35.631Z,41.80
2018-03-06T10:12:35.532Z,43.50
2018-03-06T10:13:35.462Z,41.30
2018-03-06T10:14:35.369Z,45.10
2018-03-06T10:15:35.293Z,42.00
2018-03-06T10:16:35.218Z,42.50
2018-03-06T10:17:35.133Z,42.80
2018-03-06T10:18:35.055Z,43.60
2018-03-06T10:19:34.969Z,50.00
2018-03-06T10:20:34.896Z,46.60
2018-03-06T10:21:34.806Z,45.10
2018-03-06T10:22:34.732Z,44.70
2018-03-06T10:23:34.646Z,43.90
2018-03-06T10:24:34.571Z,46.60
2018-03-06T10:25:34.493Z,45.80
2018-03-06T10:26:34.408Z,41.00
2018-03-06T10:27:34.332Z,44.70
2018-03-06T10:28:34.258Z,43.40
2018-03-06T10:29:34.171Z,44.10
2018-03-06T10:30:34.096Z,44.00
2018-03-06T10:31:34.010Z,41.80
2018-03-06T10:32:33.934Z,40.20
2018-03-06T10:33:33.846Z,40.70
2018-03-06T10:34:33.772Z,42.20
2018-03-06T10:35:33.699Z,42.20
2018-03-06T10:36:33.635Z,40.90
2018-03-06T10:37:33.533Z,44.80
2018-03-06T10:38:33.447Z,40.30
2018-03-06T10:39:33.373Z,36.80
2018-03-06T10:40:33.297Z,36.90
2018-03-06T10:41:33.209Z,36.50
2018-03-06T10:42:33.135Z,36.20
2018-03-06T10:43:33.046Z,37.90
2018-03-06T10:44:32.972Z,37.00
2018-03-06T10:45:32.897Z,37.00
2018-03-06T10:46:32.809Z,37.50
2018-03-06T10:47:32.736Z,37.00
2018-03-06T10:48:32.648Z,38.00
2018-03-06T10:49:32.574Z,40.00
2018-03-06T10:50:32.499Z,38.10
2018-03-06T10:51:32.411Z,42.40
2018-03-06T10:52:32.335Z,39.50
2018-03-06T10:53:32.249Z,39.10
2018-03-06T10:54:32.174Z,37.90
2018-03-06T10:55:32.099Z,40.70
2018-03-06T10:56:32.012Z,39.40
2018-03-06T10:57:31.937Z,40.20
2018-03-06T10:58:31.849Z,41.90
2018-03-06T10:59:31.775Z,40.50
2018-03-06T11:00:31.699Z,39.30
2018-03-06T11:01:31.613Z,40.60
2018-03-06T11:02:31.536Z,37.90
2018-03-06T11:03:31.463Z,38.00
2018-03-06T11:04:31.375Z,44.50
2018-03-06T11:05:31.303Z,40.50
2018-03-06T11:06:31.223Z,38.10
2018-03-06T11:07:31.141Z,37.40
2018-03-06T11:08:31.066Z,37.00
2018-03-06T11:09:30.974Z,40.00
2018-03-06T11:10:30.899Z,39.00
2018-03-06T11:11:30.825Z,39.60
2018-03-06T11:12:30.738Z,40.20
2018-03-06T11:13:30.662Z,38.90
2018-03-06T11:14:30.576Z,38.20
2018-03-06T11:15:30.501Z,39.00
2018-03-06T11:16:30.426Z,35.10
2018-03-06T11:17:30.342Z,37.20
2018-03-06T11:18:30.266Z,35.90
2018-03-06T11:19:30.189Z,35.20
2018-03-06T11:20:30.100Z,35.40
2018-03-06T11:21:30.027Z,38.30
2018-03-06T11:22:29.951Z,38.70
2018-03-06T11:23:29.863Z,36.80
2018-03-06T11:24:29.789Z,36.60
2018-03-06T11:25:29.716Z,35.70
2018-03-06T11:26:29.627Z,35.80
2018-03-06T11:27:29.552Z,36.70
2018-03-06T11:28:29.477Z,37.10
2018-03-06T11:29:29.390Z,38.40
2018-03-06T11:30:29.315Z,43.10
2018-03-06T11:31:29.241Z,41.50
2018-03-06T11:32:29.152Z,44.50
2018-03-06T11:33:29.078Z,43.70
2018-03-06T11:34:29.003Z,43.80
2018-03-06T11:35:28.940Z,46.20
2018-03-06T11:36:28.840Z,43.20
2018-03-06T11:37:28.765Z,43.40
2018-03-06T11:38:28.679Z,45.80
2018-03-06T11:39:28.601Z,46.80
2018-03-06T11:40:28.524Z,48.60
2018-03-06T11:41:28.453Z,47.00
2018-03-06T11:42:28.363Z,48.10
2018-03-06T11:43:28.297Z,46.30
2018-03-06T11:44:28.207Z,46.00
2018-03-06T11:45:28.125Z,45.40
2018-03-06T11:46:28.053Z,42.00
2018-03-06T11:47:27.961Z,43.70
2018-03-06T11:48:27.894Z,41.60
2018-03-06T11:49:27.816Z,43.40
2018-03-06T11:50:27.728Z,42.40
2018-03-06T11:51:27.658Z,43.00
2018-03-06T11:52:27.581Z,39.50
2018-03-06T11:53:27.505Z,45.60
2018-03-06T11:54:27.421Z,44.70
2018-03-06T11:55:27.342Z,45.00
2018-03-06T11:56:27.269Z,44.60
2018-03-06T11:57:27.185Z,45.00
2018-03-06T11:58:27.101Z,46.40
2018-03-06T11:59:27.031Z,44.00
2018-03-06T12:00:26.962Z,48.90
2018-03-06T12:01:26.863Z,50.00
2018-03-06T12:02:26.798Z,47.50
2018-03-06T12:03:26.714Z,46.80
2018-03-06T12:04:26.645Z,47.80
2018-03-06T12:05:26.557Z,42.80
2018-03-06T12:06:26.480Z,43.80
2018-03-06T12:07:26.406Z,43.30
2018-03-06T12:08:26.323Z,44.40
2018-03-06T12:09:26.240Z,44.50
2018-03-06T12:10:26.158Z,45.70
2018-03-06T12:11:26.079Z,44.80
2018-03-06T12:12:26.004Z,44.20
2018-03-06T12:13:25.947Z,49.10
2018-03-06T12:14:25.844Z,45.30
2018-03-06T12:15:25.772Z,44.30
2018-03-06T12:16:25.697Z,46.70
2018-03-06T12:17:25.605Z,48.70
2018-03-06T12:18:25.534Z,44.90
2018-03-06T12:19:25.466Z,46.50
2018-03-06T12:20:25.374Z,46.10
2018-03-06T12:21:25.297Z,48.00
2018-03-06T12:22:25.217Z,44.10
2018-03-06T12:23:25.134Z,46.10
2018-03-06T12:24:25.059Z,44.70
2018-03-06T12:25:24.981Z,46.40
2018-03-06T12:26:24.896Z,46.30
2018-03-06T12:27:24.823Z,43.20
2018-03-06T12:28:24.742Z,45.30
2018-03-06T12:29:24.659Z,43.90
2018-03-06T12:30:24.595Z,43.90
2018-03-06T12:31:24.504Z,46.30
2018-03-06T12:32:24.431Z,46.10
2018-03-06T12:33:24.347Z,45.40
2018-03-06T12:34:24.269Z,46.80
2018-03-06T12:35:24.197Z,47.10
2018-03-06T12:36:24.110Z,45.30
2018-03-06T12:37:24.032Z,44.40
2018-03-06T12:38:23.946Z,49.00
2018-03-06T12:39:23.868Z,47.70
2018-03-06T12:40:23.796Z,42.10
2018-03-06T12:41:23.715Z,46.70
2018-03-06T12:42:23.635Z,45.40
2018-03-06T12:43:23.562Z,44.00
2018-03-06T12:44:23.476Z,45.90
2018-03-06T12:45:23.396Z,46.20
2018-03-06T12:46:23.324Z,46.00
2018-03-06T12:47:23.232Z,46.70
2018-03-06T12:48:23.161Z,44.60
2018-03-06T12:49:23.088Z,47.20
2018-03-06T12:50:22.994Z,46.40
2018-03-06T12:51:22.923Z,51.50